sensor_id;sensor_type;location;lat;lon;timestamp;pressure;altitude;pressure_sealevel;temperature;humidity
75745;BME280;64359;51.366;-0.222;2023-02-11T00:00:16;103261.59;;;20.93;48.69
75745;BME280;64359;51.366;-0.222;2023-02-11T00:01:23;103260.17;;;20.91;48.29
75745;BME280;64359;51.366;-0.222;2023-02-11T00:02:25;103261.58;;;20.89;48.73
75745;BME280;64359;51.366;-0.222;2023-02-11T00:03:30;103251.92;;;20.84;47.97
75745;BME280;64359;51.366;-0.222;2023-02-11T00:04:32;103260.75;;;20.86;48.79
75745;BME280;64359;51.366;-0.222;2023-02-11T00:05:34;103254.80;;;20.83;48.60
75745;BME280;64359;51.366;-0.222;2023-02-11T00:06:37;103253.07;;;20.82;48.11
75745;BME280;64359;51.366;-0.222;2023-02-11T00:07:39;103253.15;;;20.81;48.13
75745;BME280;64359;51.366;-0.222;2023-02-11T00:08:42;103254.11;;;20.80;48.28
75745;BME280;64359;51.366;-0.222;2023-02-11T00:09:44;103255.98;;;20.80;48.67
75745;BME280;64359;51.366;-0.222;2023-02-11T00:10:51;103255.23;;;20.78;48.06
75745;BME280;64359;51.366;-0.222;2023-02-11T00:11:53;103255.77;;;20.76;48.33
75745;BME280;64359;51.366;-0.222;2023-02-11T00:12:56;103258.74;;;20.75;48.68
75745;BME280;64359;51.366;-0.222;2023-02-11T00:13:59;103260.27;;;20.74;48.38
75745;BME280;64359;51.366;-0.222;2023-02-11T00:15:03;103262.05;;;20.72;47.90
75745;BME280;64359;51.366;-0.222;2023-02-11T00:16:07;103263.56;;;20.71;48.00
75745;BME280;64359;51.366;-0.222;2023-02-11T00:17:10;103262.56;;;20.70;48.50
75745;BME280;64359;51.366;-0.222;2023-02-11T00:18:12;103260.84;;;20.69;48.50
75745;BME280;64359;51.366;-0.222;2023-02-11T00:19:14;103261.05;;;20.69;48.36
75745;BME280;64359;51.366;-0.222;2023-02-11T00:20:17;103259.95;;;20.67;48.34
75745;BME280;64359;51.366;-0.222;2023-02-11T00:21:21;103261.06;;;20.67;48.41
75745;BME280;64359;51.366;-0.222;2023-02-11T00:22:24;103263.33;;;20.65;48.43
75745;BME280;64359;51.366;-0.222;2023-02-11T00:23:26;103255.44;;;20.60;48.14
75745;BME280;64359;51.366;-0.222;2023-02-11T00:24:28;103259.73;;;20.63;48.47
75745;BME280;64359;51.366;-0.222;2023-02-11T00:25:31;103258.71;;;20.62;48.35
75745;BME280;64359;51.366;-0.222;2023-02-11T00:26:34;103259.88;;;20.62;48.61
75745;BME280;64359;51.366;-0.222;2023-02-11T00:27:37;103260.60;;;20.59;48.66
75745;BME280;64359;51.366;-0.222;2023-02-11T00:28:39;103259.73;;;20.59;48.52
75745;BME280;64359;51.366;-0.222;2023-02-11T00:29:42;103260.77;;;20.57;48.83
75745;BME280;64359;51.366;-0.222;2023-02-11T00:30:44;103267.64;;;20.57;48.46
75745;BME280;64359;51.366;-0.222;2023-02-11T00:31:46;103258.14;;;20.49;48.35
75745;BME280;64359;51.366;-0.222;2023-02-11T00:32:49;103262.80;;;20.52;47.98
75745;BME280;64359;51.366;-0.222;2023-02-11T00:33:52;103257.06;;;20.47;48.81
75745;BME280;64359;51.366;-0.222;2023-02-11T00:34:54;103266.97;;;20.49;48.47
75745;BME280;64359;51.366;-0.222;2023-02-11T00:35:56;103266.28;;;20.49;48.47
75745;BME280;64359;51.366;-0.222;2023-02-11T00:36:59;103264.79;;;20.48;48.36
75745;BME280;64359;51.366;-0.222;2023-02-11T00:38:01;103266.97;;;20.48;48.58
75745;BME280;64359;51.366;-0.222;2023-02-11T00:39:05;103266.16;;;20.46;48.62
75745;BME280;64359;51.366;-0.222;2023-02-11T00:40:09;103264.23;;;20.46;48.62
75745;BME280;64359;51.366;-0.222;2023-02-11T00:41:12;103267.73;;;20.45;49.13
75745;BME280;64359;51.366;-0.222;2023-02-11T00:42:15;103267.73;;;20.43;49.02
75745;BME280;64359;51.366;-0.222;2023-02-11T00:43:17;103268.91;;;20.42;49.21
75745;BME280;64359;51.366;-0.222;2023-02-11T00:44:20;103268.63;;;20.41;48.76
75745;BME280;64359;51.366;-0.222;2023-02-11T00:45:22;103269.23;;;20.40;48.36
75745;BME280;64359;51.366;-0.222;2023-02-11T00:46:24;103270.61;;;20.38;48.20
75745;BME280;64359;51.366;-0.222;2023-02-11T00:47:27;103267.77;;;20.38;47.98
75745;BME280;64359;51.366;-0.222;2023-02-11T00:48:29;103272.20;;;20.36;47.59
75745;BME280;64359;51.366;-0.222;2023-02-11T00:49:32;103273.66;;;20.36;47.77
75745;BME280;64359;51.366;-0.222;2023-02-11T00:50:34;103273.05;;;20.35;47.58
75745;BME280;64359;51.366;-0.222;2023-02-11T00:51:37;103274.02;;;20.34;47.83
75745;BME280;64359;51.366;-0.222;2023-02-11T00:52:39;103276.95;;;20.33;47.53
75745;BME280;64359;51.366;-0.222;2023-02-11T00:53:42;103278.99;;;20.33;47.61
75745;BME280;64359;51.366;-0.222;2023-02-11T00:54:44;103274.64;;;20.30;47.58
75745;BME280;64359;51.366;-0.222;2023-02-11T00:55:46;103275.95;;;20.30;47.57
75745;BME280;64359;51.366;-0.222;2023-02-11T00:56:49;103276.34;;;20.30;47.64
75745;BME280;64359;51.366;-0.222;2023-02-11T00:57:52;103274.42;;;20.29;47.63
75745;BME280;64359;51.366;-0.222;2023-02-11T00:58:54;103272.54;;;20.28;47.69
75745;BME280;64359;51.366;-0.222;2023-02-11T00:59:56;103274.66;;;20.26;47.47
75745;BME280;64359;51.366;-0.222;2023-02-11T01:00:59;103276.67;;;20.26;47.51
75745;BME280;64359;51.366;-0.222;2023-02-11T01:02:01;103277.06;;;20.25;47.49
75745;BME280;64359;51.366;-0.222;2023-02-11T01:03:03;103278.79;;;20.23;47.48
75745;BME280;64359;51.366;-0.222;2023-02-11T01:04:06;103277.76;;;20.23;47.67
75745;BME280;64359;51.366;-0.222;2023-02-11T01:05:08;103280.89;;;20.22;47.83
75745;BME280;64359;51.366;-0.222;2023-02-11T01:06:10;103281.72;;;20.21;48.04
75745;BME280;64359;51.366;-0.222;2023-02-11T01:07:13;103277.33;;;20.19;48.27
75745;BME280;64359;51.366;-0.222;2023-02-11T01:08:15;103274.73;;;20.16;48.08
75745;BME280;64359;51.366;-0.222;2023-02-11T01:09:18;103279.76;;;20.18;48.56
75745;BME280;64359;51.366;-0.222;2023-02-11T01:10:21;103275.45;;;20.18;48.92
75745;BME280;64359;51.366;-0.222;2023-02-11T01:11:24;103274.35;;;20.16;48.82
75745;BME280;64359;51.366;-0.222;2023-02-11T01:12:26;103276.29;;;20.17;49.15
75745;BME280;64359;51.366;-0.222;2023-02-11T01:13:30;103279.27;;;20.15;49.59
75745;BME280;64359;51.366;-0.222;2023-02-11T01:14:33;103279.37;;;20.14;50.13
75745;BME280;64359;51.366;-0.222;2023-02-11T01:15:35;103279.49;;;20.13;50.30
75745;BME280;64359;51.366;-0.222;2023-02-11T01:16:37;103280.02;;;20.11;50.40
75745;BME280;64359;51.366;-0.222;2023-02-11T01:17:40;103271.20;;;20.06;50.53
75745;BME280;64359;51.366;-0.222;2023-02-11T01:18:42;103278.98;;;20.08;50.57
75745;BME280;64359;51.366;-0.222;2023-02-11T01:19:45;103275.03;;;20.08;50.73
75745;BME280;64359;51.366;-0.222;2023-02-11T01:20:47;103277.61;;;20.07;50.91
75745;BME280;64359;51.366;-0.222;2023-02-11T01:21:50;103273.56;;;20.06;50.97
75745;BME280;64359;51.366;-0.222;2023-02-11T01:22:52;103273.09;;;20.05;50.88
75745;BME280;64359;51.366;-0.222;2023-02-11T01:23:55;103276.11;;;20.05;51.16
75745;BME280;64359;51.366;-0.222;2023-02-11T01:24:57;103272.66;;;20.05;51.21
75745;BME280;64359;51.366;-0.222;2023-02-11T01:25:59;103272.48;;;20.06;51.33
75745;BME280;64359;51.366;-0.222;2023-02-11T01:27:02;103270.98;;;20.06;51.24
75745;BME280;64359;51.366;-0.222;2023-02-11T01:28:04;103275.82;;;20.07;51.36
75745;BME280;64359;51.366;-0.222;2023-02-11T01:29:07;103272.15;;;20.07;51.36
75745;BME280;64359;51.366;-0.222;2023-02-11T01:30:13;103272.15;;;20.07;51.32
75745;BME280;64359;51.366;-0.222;2023-02-11T01:31:15;103264.83;;;20.04;51.39
75745;BME280;64359;51.366;-0.222;2023-02-11T01:32:17;103270.51;;;20.10;51.41
75745;BME280;64359;51.366;-0.222;2023-02-11T01:33:21;103271.54;;;20.11;51.42
75745;BME280;64359;51.366;-0.222;2023-02-11T01:34:24;103270.63;;;20.13;51.52
75745;BME280;64359;51.366;-0.222;2023-02-11T01:35:26;103269.04;;;20.15;51.42
75745;BME280;64359;51.366;-0.222;2023-02-11T01:36:28;103267.60;;;20.17;51.37
75745;BME280;64359;51.366;-0.222;2023-02-11T01:37:33;103270.19;;;20.18;51.38
75745;BME280;64359;51.366;-0.222;2023-02-11T01:38:36;103271.48;;;20.20;51.29
75745;BME280;64359;51.366;-0.222;2023-02-11T01:39:38;103275.66;;;20.22;51.37
75745;BME280;64359;51.366;-0.222;2023-02-11T01:40:44;103273.10;;;20.25;51.18
75745;BME280;64359;51.366;-0.222;2023-02-11T01:41:47;103279.01;;;20.28;51.13
75745;BME280;64359;51.366;-0.222;2023-02-11T01:42:49;103278.04;;;20.31;51.25
75745;BME280;64359;51.366;-0.222;2023-02-11T01:43:51;103278.02;;;20.33;51.08
75745;BME280;64359;51.366;-0.222;2023-02-11T01:44:56;103276.08;;;20.35;51.01
75745;BME280;64359;51.366;-0.222;2023-02-11T01:46:02;103269.70;;;20.34;51.09
75745;BME280;64359;51.366;-0.222;2023-02-11T01:47:06;103275.52;;;20.40;51.06
75745;BME280;64359;51.366;-0.222;2023-02-11T01:48:09;103272.32;;;20.42;51.04
75745;BME280;64359;51.366;-0.222;2023-02-11T01:49:16;103276.95;;;20.45;50.90
75745;BME280;64359;51.366;-0.222;2023-02-11T01:50:19;103275.70;;;20.47;50.89
75745;BME280;64359;51.366;-0.222;2023-02-11T01:51:24;103275.29;;;20.49;50.86
75745;BME280;64359;51.366;-0.222;2023-02-11T01:52:30;103270.27;;;20.51;50.80
75745;BME280;64359;51.366;-0.222;2023-02-11T01:53:33;103269.40;;;20.53;50.72
75745;BME280;64359;51.366;-0.222;2023-02-11T01:54:58;103265.30;;;20.57;50.62
75745;BME280;64359;51.366;-0.222;2023-02-11T01:56:20;103256.64;;;20.59;50.52
75745;BME280;64359;51.366;-0.222;2023-02-11T01:57:41;103252.05;;;20.60;50.61
75745;BME280;64359;51.366;-0.222;2023-02-11T01:58:47;103249.69;;;20.60;50.49
75745;BME280;64359;51.366;-0.222;2023-02-11T01:59:59;103247.48;;;20.63;50.45
75745;BME280;64359;51.366;-0.222;2023-02-11T02:01:04;103244.58;;;20.65;50.42
75745;BME280;64359;51.366;-0.222;2023-02-11T02:02:10;103243.11;;;20.68;50.53
75745;BME280;64359;51.366;-0.222;2023-02-11T02:03:16;103241.97;;;20.71;50.53
75745;BME280;64359;51.366;-0.222;2023-02-11T02:04:20;103237.68;;;20.72;50.42
75745;BME280;64359;51.366;-0.222;2023-02-11T02:05:31;103237.47;;;20.74;50.24
75745;BME280;64359;51.366;-0.222;2023-02-11T02:06:42;103241.73;;;20.77;49.91
75745;BME280;64359;51.366;-0.222;2023-02-11T02:07:51;103242.10;;;20.79;49.95
75745;BME280;64359;51.366;-0.222;2023-02-11T02:08:57;103235.17;;;20.76;49.86
75745;BME280;64359;51.366;-0.222;2023-02-11T02:10:06;103244.61;;;20.82;49.92
75745;BME280;64359;51.366;-0.222;2023-02-11T02:11:09;103245.85;;;20.84;49.59
75745;BME280;64359;51.366;-0.222;2023-02-11T02:12:12;103249.81;;;20.87;49.81
75745;BME280;64359;51.366;-0.222;2023-02-11T02:13:15;103253.52;;;20.88;49.58
75745;BME280;64359;51.366;-0.222;2023-02-11T02:14:18;103256.45;;;20.90;49.66
75745;BME280;64359;51.366;-0.222;2023-02-11T02:15:26;103255.63;;;20.91;49.50
75745;BME280;64359;51.366;-0.222;2023-02-11T02:16:32;103254.17;;;20.91;49.51
75745;BME280;64359;51.366;-0.222;2023-02-11T02:17:40;103256.34;;;20.93;49.49
75745;BME280;64359;51.366;-0.222;2023-02-11T02:18:53;103254.86;;;20.93;49.51
75745;BME280;64359;51.366;-0.222;2023-02-11T02:20:23;103257.48;;;20.94;49.61
75745;BME280;64359;51.366;-0.222;2023-02-11T02:23:38;103257.65;;;20.93;49.39
75745;BME280;64359;51.366;-0.222;2023-02-11T02:25:09;103256.42;;;20.92;49.39
75745;BME280;64359;51.366;-0.222;2023-02-11T02:26:49;103254.03;;;20.93;49.30
75745;BME280;64359;51.366;-0.222;2023-02-11T02:28:00;103252.99;;;20.92;49.34
75745;BME280;64359;51.366;-0.222;2023-02-11T02:29:32;103249.88;;;20.93;49.22
75745;BME280;64359;51.366;-0.222;2023-02-11T02:30:48;103248.11;;;20.92;49.02
75745;BME280;64359;51.366;-0.222;2023-02-11T02:32:17;103246.46;;;20.92;49.00
75745;BME280;64359;51.366;-0.222;2023-02-11T02:33:33;103244.98;;;20.93;49.12
75745;BME280;64359;51.366;-0.222;2023-02-11T02:34:43;103233.37;;;20.89;49.01
75745;BME280;64359;51.366;-0.222;2023-02-11T02:35:52;103237.71;;;20.93;48.90
75745;BME280;64359;51.366;-0.222;2023-02-11T02:37:03;103223.88;;;20.86;48.88
75745;BME280;64359;51.366;-0.222;2023-02-11T02:38:10;103234.05;;;20.94;48.67
75745;BME280;64359;51.366;-0.222;2023-02-11T02:39:19;103231.73;;;20.94;48.74
75745;BME280;64359;51.366;-0.222;2023-02-11T02:40:24;103220.30;;;20.88;48.61
75745;BME280;64359;51.366;-0.222;2023-02-11T02:41:31;103233.15;;;20.94;48.84
75745;BME280;64359;51.366;-0.222;2023-02-11T02:42:35;103232.98;;;20.94;48.92
75745;BME280;64359;51.366;-0.222;2023-02-11T02:43:44;103232.81;;;20.94;48.92
75745;BME280;64359;51.366;-0.222;2023-02-11T02:44:48;103233.03;;;20.93;48.61
75745;BME280;64359;51.366;-0.222;2023-02-11T02:45:51;103231.58;;;20.93;48.79
75745;BME280;64359;51.366;-0.222;2023-02-11T02:46:54;103236.83;;;20.93;48.94
75745;BME280;64359;51.366;-0.222;2023-02-11T02:47:56;103234.47;;;20.93;48.85
75745;BME280;64359;51.366;-0.222;2023-02-11T02:48:59;103236.59;;;20.92;48.88
75745;BME280;64359;51.366;-0.222;2023-02-11T02:50:02;103236.39;;;20.92;49.16
75745;BME280;64359;51.366;-0.222;2023-02-11T02:51:14;103235.77;;;20.91;49.18
75745;BME280;64359;51.366;-0.222;2023-02-11T02:52:30;103235.15;;;20.90;49.26
75745;BME280;64359;51.366;-0.222;2023-02-11T02:53:43;103237.54;;;20.89;49.25
75745;BME280;64359;51.366;-0.222;2023-02-11T02:56:43;103229.70;;;20.86;49.21
75745;BME280;64359;51.366;-0.222;2023-02-11T02:57:59;103224.69;;;20.80;49.19
75745;BME280;64359;51.366;-0.222;2023-02-11T02:59:32;103231.30;;;20.83;49.12
75745;BME280;64359;51.366;-0.222;2023-02-11T03:00:45;103229.80;;;20.82;49.18
75745;BME280;64359;51.366;-0.222;2023-02-11T03:01:58;103227.30;;;20.81;49.29
75745;BME280;64359;51.366;-0.222;2023-02-11T03:03:14;103227.27;;;20.80;49.21
75745;BME280;64359;51.366;-0.222;2023-02-11T03:04:22;103224.83;;;20.77;49.23
75745;BME280;64359;51.366;-0.222;2023-02-11T03:05:32;103225.23;;;20.78;49.32
75745;BME280;64359;51.366;-0.222;2023-02-11T03:06:47;103224.44;;;20.77;49.25
75745;BME280;64359;51.366;-0.222;2023-02-11T03:07:55;103218.93;;;20.71;49.23
75745;BME280;64359;51.366;-0.222;2023-02-11T03:09:03;103223.02;;;20.74;49.28
75745;BME280;64359;51.366;-0.222;2023-02-11T03:10:09;103223.07;;;20.74;49.13
75745;BME280;64359;51.366;-0.222;2023-02-11T03:11:16;103223.86;;;20.73;49.33
75745;BME280;64359;51.366;-0.222;2023-02-11T03:12:21;103228.05;;;20.73;49.32
75745;BME280;64359;51.366;-0.222;2023-02-11T03:13:28;103227.21;;;20.72;49.29
75745;BME280;64359;51.366;-0.222;2023-02-11T03:14:35;103229.28;;;20.71;49.11
75745;BME280;64359;51.366;-0.222;2023-02-11T03:15:42;103230.80;;;20.70;49.17
75745;BME280;64359;51.366;-0.222;2023-02-11T03:16:45;103230.89;;;20.69;49.27
75745;BME280;64359;51.366;-0.222;2023-02-11T03:17:51;103227.86;;;20.68;49.28
75745;BME280;64359;51.366;-0.222;2023-02-11T03:18:58;103229.96;;;20.67;49.29
75745;BME280;64359;51.366;-0.222;2023-02-11T03:20:04;103225.71;;;20.66;49.39
75745;BME280;64359;51.366;-0.222;2023-02-11T03:21:10;103224.61;;;20.64;49.20
75745;BME280;64359;51.366;-0.222;2023-02-11T03:22:17;103224.59;;;20.65;49.33
75745;BME280;64359;51.366;-0.222;2023-02-11T03:23:25;103222.40;;;20.63;49.37
75745;BME280;64359;51.366;-0.222;2023-02-11T03:24:32;103219.85;;;20.61;49.42
75745;BME280;64359;51.366;-0.222;2023-02-11T03:25:41;103220.98;;;20.60;49.36
75745;BME280;64359;51.366;-0.222;2023-02-11T03:26:48;103221.46;;;20.59;49.32
75745;BME280;64359;51.366;-0.222;2023-02-11T03:27:56;103223.29;;;20.59;49.36
75745;BME280;64359;51.366;-0.222;2023-02-11T03:29:05;103226.98;;;20.57;49.38
75745;BME280;64359;51.366;-0.222;2023-02-11T03:30:13;103223.55;;;20.55;49.27
75745;BME280;64359;51.366;-0.222;2023-02-11T03:31:21;103226.24;;;20.53;49.08
75745;BME280;64359;51.366;-0.222;2023-02-11T03:32:30;103227.58;;;20.52;49.28
75745;BME280;64359;51.366;-0.222;2023-02-11T03:33:38;103226.21;;;20.51;49.25
75745;BME280;64359;51.366;-0.222;2023-02-11T03:34:46;103225.61;;;20.50;49.46
75745;BME280;64359;51.366;-0.222;2023-02-11T03:35:52;103228.39;;;20.49;49.45
75745;BME280;64359;51.366;-0.222;2023-02-11T03:37:01;103224.73;;;20.47;49.47
75745;BME280;64359;51.366;-0.222;2023-02-11T03:38:06;103222.38;;;20.45;49.53
75745;BME280;64359;51.366;-0.222;2023-02-11T03:39:18;103219.92;;;20.45;49.48
75745;BME280;64359;51.366;-0.222;2023-02-11T03:40:24;103214.23;;;20.43;49.55
75745;BME280;64359;51.366;-0.222;2023-02-11T03:41:27;103218.10;;;20.43;49.58
75745;BME280;64359;51.366;-0.222;2023-02-11T03:42:36;103216.05;;;20.41;49.48
75745;BME280;64359;51.366;-0.222;2023-02-11T03:43:41;103212.73;;;20.40;49.52
75745;BME280;64359;51.366;-0.222;2023-02-11T03:44:52;103214.92;;;20.40;49.56
75745;BME280;64359;51.366;-0.222;2023-02-11T03:45:58;103213.02;;;20.38;49.60
75745;BME280;64359;51.366;-0.222;2023-02-11T03:47:03;103212.21;;;20.37;49.63
75745;BME280;64359;51.366;-0.222;2023-02-11T03:48:11;103206.65;;;20.32;49.57
75745;BME280;64359;51.366;-0.222;2023-02-11T03:49:18;103216.52;;;20.35;49.61
75745;BME280;64359;51.366;-0.222;2023-02-11T03:50:22;103213.15;;;20.34;49.60
75745;BME280;64359;51.366;-0.222;2023-02-11T03:51:28;103214.27;;;20.34;49.67
75745;BME280;64359;51.366;-0.222;2023-02-11T03:52:33;103212.58;;;20.32;49.74
75745;BME280;64359;51.366;-0.222;2023-02-11T03:53:38;103211.39;;;20.31;49.62
75745;BME280;64359;51.366;-0.222;2023-02-11T03:54:43;103210.44;;;20.30;49.73
75745;BME280;64359;51.366;-0.222;2023-02-11T03:55:49;103208.38;;;20.29;49.69
75745;BME280;64359;51.366;-0.222;2023-02-11T03:56:54;103202.75;;;20.27;49.80
75745;BME280;64359;51.366;-0.222;2023-02-11T03:57:57;103203.86;;;20.27;49.63
75745;BME280;64359;51.366;-0.222;2023-02-11T03:58:59;103204.11;;;20.26;49.80
75745;BME280;64359;51.366;-0.222;2023-02-11T04:00:02;103205.80;;;20.25;49.73
75745;BME280;64359;51.366;-0.222;2023-02-11T04:01:06;103203.35;;;20.24;49.74
75745;BME280;64359;51.366;-0.222;2023-02-11T04:02:10;103205.46;;;20.22;49.80
75745;BME280;64359;51.366;-0.222;2023-02-11T04:03:12;103206.90;;;20.22;49.77
75745;BME280;64359;51.366;-0.222;2023-02-11T04:04:15;103203.88;;;20.20;49.75
75745;BME280;64359;51.366;-0.222;2023-02-11T04:05:17;103212.31;;;20.20;49.71
75745;BME280;64359;51.366;-0.222;2023-02-11T04:06:20;103210.34;;;20.20;49.70
75745;BME280;64359;51.366;-0.222;2023-02-11T04:07:22;103206.30;;;20.18;49.78
75745;BME280;64359;51.366;-0.222;2023-02-11T04:08:25;103204.22;;;20.18;49.84
75745;BME280;64359;51.366;-0.222;2023-02-11T04:09:27;103208.02;;;20.18;49.89
75745;BME280;64359;51.366;-0.222;2023-02-11T04:10:30;103207.42;;;20.16;49.71
75745;BME280;64359;51.366;-0.222;2023-02-11T04:11:32;103205.98;;;20.16;49.81
75745;BME280;64359;51.366;-0.222;2023-02-11T04:12:34;103211.48;;;20.15;49.78
75745;BME280;64359;51.366;-0.222;2023-02-11T04:13:36;103213.67;;;20.15;49.86
75745;BME280;64359;51.366;-0.222;2023-02-11T04:14:39;103213.06;;;20.13;49.92
75745;BME280;64359;51.366;-0.222;2023-02-11T04:15:41;103214.61;;;20.12;49.89
75745;BME280;64359;51.366;-0.222;2023-02-11T04:16:43;103214.73;;;20.10;49.88
75745;BME280;64359;51.366;-0.222;2023-02-11T04:17:46;103217.91;;;20.09;49.97
75745;BME280;64359;51.366;-0.222;2023-02-11T04:18:48;103222.59;;;20.07;49.96
75745;BME280;64359;51.366;-0.222;2023-02-11T04:19:50;103221.52;;;20.05;49.97
75745;BME280;64359;51.366;-0.222;2023-02-11T04:20:53;103217.33;;;20.03;50.02
75745;BME280;64359;51.366;-0.222;2023-02-11T04:21:55;103224.02;;;20.03;50.13
75745;BME280;64359;51.366;-0.222;2023-02-11T04:22:57;103220.33;;;20.02;50.06
75745;BME280;64359;51.366;-0.222;2023-02-11T04:23:59;103223.60;;;20.01;50.22
75745;BME280;64359;51.366;-0.222;2023-02-11T04:25:02;103221.34;;;20.00;50.23
75745;BME280;64359;51.366;-0.222;2023-02-11T04:26:05;103217.16;;;20.01;50.22
75745;BME280;64359;51.366;-0.222;2023-02-11T04:27:08;103218.46;;;20.00;50.22
75745;BME280;64359;51.366;-0.222;2023-02-11T04:28:10;103222.38;;;20.01;50.27
75745;BME280;64359;51.366;-0.222;2023-02-11T04:29:12;103220.58;;;20.01;50.32
75745;BME280;64359;51.366;-0.222;2023-02-11T04:30:15;103220.19;;;20.01;50.38
75745;BME280;64359;51.366;-0.222;2023-02-11T04:31:17;103221.57;;;20.02;50.34
75745;BME280;64359;51.366;-0.222;2023-02-11T04:32:19;103218.45;;;20.02;50.34
75745;BME280;64359;51.366;-0.222;2023-02-11T04:33:22;103219.64;;;20.03;50.36
75745;BME280;64359;51.366;-0.222;2023-02-11T04:34:25;103220.80;;;20.05;50.34
75745;BME280;64359;51.366;-0.222;2023-02-11T04:35:27;103222.17;;;20.06;50.38
75745;BME280;64359;51.366;-0.222;2023-02-11T04:36:29;103223.31;;;20.07;50.36
75745;BME280;64359;51.366;-0.222;2023-02-11T04:37:32;103224.52;;;20.10;50.25
75745;BME280;64359;51.366;-0.222;2023-02-11T04:38:34;103226.95;;;20.11;50.18
75745;BME280;64359;51.366;-0.222;2023-02-11T04:39:36;103229.15;;;20.13;50.30
75745;BME280;64359;51.366;-0.222;2023-02-11T04:40:39;103230.33;;;20.14;50.29
75745;BME280;64359;51.366;-0.222;2023-02-11T04:41:41;103232.05;;;20.15;50.18
75745;BME280;64359;51.366;-0.222;2023-02-11T04:42:44;103230.83;;;20.17;50.14
75745;BME280;64359;51.366;-0.222;2023-02-11T04:43:46;103229.83;;;20.20;50.19
75745;BME280;64359;51.366;-0.222;2023-02-11T04:44:48;103226.48;;;20.21;50.13
75745;BME280;64359;51.366;-0.222;2023-02-11T04:45:50;103230.85;;;20.25;50.18
75745;BME280;64359;51.366;-0.222;2023-02-11T04:46:53;103228.73;;;20.27;50.06
75745;BME280;64359;51.366;-0.222;2023-02-11T04:47:55;103229.45;;;20.29;50.03
75745;BME280;64359;51.366;-0.222;2023-02-11T04:48:58;103229.77;;;20.32;49.96
75745;BME280;64359;51.366;-0.222;2023-02-11T04:50:00;103226.50;;;20.35;49.90
75745;BME280;64359;51.366;-0.222;2023-02-11T04:51:03;103229.58;;;20.37;49.79
75745;BME280;64359;51.366;-0.222;2023-02-11T04:52:05;103234.02;;;20.38;49.81
75745;BME280;64359;51.366;-0.222;2023-02-11T04:53:08;103235.88;;;20.39;49.82
75745;BME280;64359;51.366;-0.222;2023-02-11T04:54:10;103239.84;;;20.42;49.78
75745;BME280;64359;51.366;-0.222;2023-02-11T04:55:13;103244.36;;;20.44;49.69
75745;BME280;64359;51.366;-0.222;2023-02-11T04:56:15;103242.47;;;20.45;49.69
75745;BME280;64359;51.366;-0.222;2023-02-11T04:57:17;103247.63;;;20.48;49.61
75745;BME280;64359;51.366;-0.222;2023-02-11T04:58:20;103248.95;;;20.49;49.54
75745;BME280;64359;51.366;-0.222;2023-02-11T04:59:22;103247.78;;;20.52;49.51
75745;BME280;64359;51.366;-0.222;2023-02-11T05:00:25;103246.38;;;20.54;49.50
75745;BME280;64359;51.366;-0.222;2023-02-11T05:01:27;103245.65;;;20.56;49.47
75745;BME280;64359;51.366;-0.222;2023-02-11T05:02:29;103240.34;;;20.58;49.38
75745;BME280;64359;51.366;-0.222;2023-02-11T05:03:32;103237.85;;;20.60;49.40
75745;BME280;64359;51.366;-0.222;2023-02-11T05:04:34;103241.29;;;20.61;49.35
75745;BME280;64359;51.366;-0.222;2023-02-11T05:05:38;103241.45;;;20.64;49.22
75745;BME280;64359;51.366;-0.222;2023-02-11T05:06:41;103241.86;;;20.65;49.18
75745;BME280;64359;51.366;-0.222;2023-02-11T05:07:43;103238.48;;;20.67;49.17
75745;BME280;64359;51.366;-0.222;2023-02-11T05:08:46;103243.65;;;20.68;49.19
75745;BME280;64359;51.366;-0.222;2023-02-11T05:09:48;103240.22;;;20.70;49.14
75745;BME280;64359;51.366;-0.222;2023-02-11T05:10:50;103244.20;;;20.72;49.08
75745;BME280;64359;51.366;-0.222;2023-02-11T05:11:52;103244.20;;;20.74;49.04
75745;BME280;64359;51.366;-0.222;2023-02-11T05:12:55;103247.59;;;20.77;49.00
75745;BME280;64359;51.366;-0.222;2023-02-11T05:13:57;103245.14;;;20.78;48.87
75745;BME280;64359;51.366;-0.222;2023-02-11T05:14:59;103247.87;;;20.79;48.84
75745;BME280;64359;51.366;-0.222;2023-02-11T05:16:02;103249.76;;;20.81;48.93
75745;BME280;64359;51.366;-0.222;2023-02-11T05:17:04;103248.66;;;20.81;48.78
75745;BME280;64359;51.366;-0.222;2023-02-11T05:18:06;103249.83;;;20.82;48.83
75745;BME280;64359;51.366;-0.222;2023-02-11T05:19:09;103245.79;;;20.83;48.79
75745;BME280;64359;51.366;-0.222;2023-02-11T05:20:11;103249.26;;;20.85;48.70
75745;BME280;64359;51.366;-0.222;2023-02-11T05:21:16;103247.67;;;20.87;48.73
75745;BME280;64359;51.366;-0.222;2023-02-11T05:22:19;103247.27;;;20.89;48.60
75745;BME280;64359;51.366;-0.222;2023-02-11T05:23:22;103249.67;;;20.91;48.64
75745;BME280;64359;51.366;-0.222;2023-02-11T05:24:24;103248.54;;;20.91;48.60
75745;BME280;64359;51.366;-0.222;2023-02-11T05:25:27;103249.23;;;20.94;48.48
75745;BME280;64359;51.366;-0.222;2023-02-11T05:26:29;103248.40;;;20.95;48.64
75745;BME280;64359;51.366;-0.222;2023-02-11T05:27:31;103247.95;;;20.96;48.47
75745;BME280;64359;51.366;-0.222;2023-02-11T05:28:34;103248.55;;;20.98;48.41
75745;BME280;64359;51.366;-0.222;2023-02-11T05:29:37;103250.20;;;20.99;48.39
75745;BME280;64359;51.366;-0.222;2023-02-11T05:30:39;103250.29;;;21.00;48.31
75745;BME280;64359;51.366;-0.222;2023-02-11T05:31:41;103248.14;;;21.02;48.33
75745;BME280;64359;51.366;-0.222;2023-02-11T05:32:44;103250.55;;;21.04;48.23
75745;BME280;64359;51.366;-0.222;2023-02-11T05:33:46;103251.36;;;21.05;48.29
75745;BME280;64359;51.366;-0.222;2023-02-11T05:34:48;103254.18;;;21.06;48.23
75745;BME280;64359;51.366;-0.222;2023-02-11T05:35:51;103257.55;;;21.06;48.13
75745;BME280;64359;51.366;-0.222;2023-02-11T05:36:53;103263.24;;;21.08;48.15
75745;BME280;64359;51.366;-0.222;2023-02-11T05:37:55;103263.56;;;21.08;48.11
75745;BME280;64359;51.366;-0.222;2023-02-11T05:38:58;103257.29;;;21.05;48.10